HAZ2934 ZYTL-ZSHC
Flight info
| Callsign | HAZ2934 |
|---|---|
| Flight time | 1h 38m |
| Altitude | 38100 |
| Route | KAR09D KARPI W5 TAO DCT URBAD W172 LATUX W108 MATNU W115 PINOT B221 SUPAR W505 DSH |
| Aircraft | A339/H-SADE1E2E3GHIJ3J5M1P2RWXY/LB2D1 |
Departure
| Time | 2026-05-05 06:21 |
|---|---|
| Airport | Dalian Zhoushuizi International Airport (ZYTL) |
Arrival
| Time | 2026-05-05 07:59 |
|---|---|
| Airport | Hangzhou Xiaoshan International Airport (ZSHC) |
| Time | Latitude | Longitude | Altitude | Speed | Heading |
|---|---|---|---|---|---|
| 2026-05-05 05:43 | 38.96252 | 121.53066 | 123 ft | 0 kts | 153° |
| 2026-05-05 05:44 | 38.96252 | 121.53065 | 123 ft | 0 kts | 153° |
| 2026-05-05 06:09 | 38.96258 | 121.53062 | 123 ft | 2 kts | 154° |
| 2026-05-05 06:10 | 38.96272 | 121.53053 | 123 ft | 2 kts | 154° |
| 2026-05-05 06:10 | 38.96286 | 121.53045 | 123 ft | 2 kts | 154° |
| 2026-05-05 06:10 | 38.96299 | 121.53037 | 123 ft | 2 kts | 154° |
| 2026-05-05 06:10 | 38.96312 | 121.53028 | 123 ft | 2 kts | 154° |
| 2026-05-05 06:11 | 38.96326 | 121.53020 | 123 ft | 2 kts | 154° |
| 2026-05-05 06:11 | 38.96339 | 121.53011 | 123 ft | 2 kts | 154° |
| 2026-05-05 06:11 | 38.96353 | 121.53003 | 123 ft | 2 kts | 153° |
| 2026-05-05 06:11 | 38.96366 | 121.52994 | 123 ft | 2 kts | 153° |
| 2026-05-05 06:12 | 38.96379 | 121.52985 | 123 ft | 2 kts | 153° |
| 2026-05-05 06:12 | 38.96393 | 121.52976 | 123 ft | 2 kts | 153° |
| 2026-05-05 06:12 | 38.96406 | 121.52968 | 123 ft | 2 kts | 153° |
| 2026-05-05 06:12 | 38.96415 | 121.52962 | 123 ft | 1 kts | 153° |
| 2026-05-05 06:13 | 38.96427 | 121.52952 | 123 ft | 2 kts | 134° |
| 2026-05-05 06:13 | 38.96436 | 121.52937 | 123 ft | 2 kts | 116° |
| 2026-05-05 06:13 | 38.96441 | 121.52918 | 123 ft | 2 kts | 99° |
| 2026-05-05 06:13 | 38.96442 | 121.52910 | 123 ft | 1 kts | 94° |
| 2026-05-05 06:14 | 38.96442 | 121.52908 | 123 ft | 0 kts | 94° |
| 2026-05-05 06:14 | 38.96442 | 121.52911 | 123 ft | 1 kts | 94° |
| 2026-05-05 06:15 | 38.96434 | 121.53041 | 123 ft | 21 kts | 95° |
| 2026-05-05 06:15 | 38.96427 | 121.53232 | 123 ft | 21 kts | 84° |
| 2026-05-05 06:15 | 38.96426 | 121.53416 | 123 ft | 20 kts | 96° |
| 2026-05-05 06:15 | 38.96411 | 121.53596 | 123 ft | 20 kts | 95° |
| 2026-05-05 06:16 | 38.96399 | 121.53772 | 123 ft | 19 kts | 95° |
| 2026-05-05 06:16 | 38.96385 | 121.53947 | 123 ft | 19 kts | 95° |
| 2026-05-05 06:16 | 38.96373 | 121.54119 | 123 ft | 19 kts | 97° |
| 2026-05-05 06:16 | 38.96360 | 121.54290 | 123 ft | 19 kts | 95° |
| 2026-05-05 06:17 | 38.96348 | 121.54458 | 123 ft | 18 kts | 96° |
| 2026-05-05 06:17 | 38.96334 | 121.54626 | 123 ft | 18 kts | 96° |
| 2026-05-05 06:17 | 38.96320 | 121.54793 | 123 ft | 18 kts | 96° |
| 2026-05-05 06:17 | 38.96304 | 121.54959 | 123 ft | 18 kts | 107° |
| 2026-05-05 06:18 | 38.96266 | 121.55114 | 123 ft | 17 kts | 96° |
| 2026-05-05 06:18 | 38.96264 | 121.55270 | 123 ft | 17 kts | 93° |
| 2026-05-05 06:18 | 38.96255 | 121.55425 | 123 ft | 17 kts | 97° |
| 2026-05-05 06:18 | 38.96236 | 121.55581 | 123 ft | 17 kts | 100° |
| 2026-05-05 06:19 | 38.96240 | 121.55695 | 123 ft | 9 kts | 57° |
| 2026-05-05 06:19 | 38.96285 | 121.55722 | 123 ft | 7 kts | 3° |
| 2026-05-05 06:19 | 38.96314 | 121.55724 | 123 ft | 4 kts | 2° |
| 2026-05-05 06:19 | 38.96356 | 121.55720 | 123 ft | 7 kts | 345° |
| 2026-05-05 06:20 | 38.96432 | 121.55604 | 123 ft | 45 kts | 281° |
| 2026-05-05 06:20 | 38.96488 | 121.54898 | 123 ft | 113 kts | 270° |
| 2026-05-05 06:20 | 38.96584 | 121.53625 | 123 ft | 171 kts | 274° |
| 2026-05-05 06:20 | 38.96704 | 121.52008 | 681 ft | 179 kts | 269° |
| 2026-05-05 06:21 | 38.96797 | 121.50473 | 1517 ft | 169 kts | 265° |
| 2026-05-05 06:21 | 38.96776 | 121.49083 | 2346 ft | 146 kts | 242° |
| 2026-05-05 06:21 | 38.96203 | 121.48178 | 2974 ft | 130 kts | 214° |
| 2026-05-05 06:21 | 38.95362 | 121.47731 | 3446 ft | 134 kts | 199° |
| 2026-05-05 06:22 | 38.94453 | 121.47429 | 3891 ft | 139 kts | 200° |
| 2026-05-05 06:22 | 38.93515 | 121.47112 | 4351 ft | 141 kts | 200° |
| 2026-05-05 06:22 | 38.92565 | 121.46787 | 4814 ft | 144 kts | 201° |
| 2026-05-05 06:22 | 38.91596 | 121.46450 | 5276 ft | 145 kts | 201° |
| 2026-05-05 06:23 | 38.90621 | 121.46107 | 5711 ft | 148 kts | 201° |
| 2026-05-05 06:23 | 38.89623 | 121.45753 | 6135 ft | 151 kts | 202° |
| 2026-05-05 06:23 | 38.88608 | 121.45394 | 6550 ft | 154 kts | 202° |
| 2026-05-05 06:23 | 38.87548 | 121.45015 | 6921 ft | 163 kts | 202° |
| 2026-05-05 06:24 | 38.86405 | 121.44601 | 7204 ft | 177 kts | 201° |
| 2026-05-05 06:24 | 38.85167 | 121.44158 | 7499 ft | 192 kts | 201° |
| 2026-05-05 06:24 | 38.83836 | 121.43682 | 7785 ft | 208 kts | 200° |
| 2026-05-05 06:24 | 38.82399 | 121.43174 | 8220 ft | 217 kts | 200° |
| 2026-05-05 06:25 | 38.80943 | 121.42660 | 8756 ft | 220 kts | 200° |
| 2026-05-05 06:25 | 38.79465 | 121.42139 | 9290 ft | 223 kts | 200° |
| 2026-05-05 06:25 | 38.77978 | 121.41433 | 9745 ft | 230 kts | 210° |
| 2026-05-05 06:25 | 38.76565 | 121.40385 | 10086 ft | 243 kts | 216° |
| 2026-05-05 06:26 | 38.75111 | 121.39154 | 10387 ft | 260 kts | 217° |
| 2026-05-05 06:26 | 38.73554 | 121.37814 | 10676 ft | 276 kts | 217° |
| 2026-05-05 06:26 | 38.71921 | 121.36414 | 10999 ft | 294 kts | 216° |
| 2026-05-05 06:26 | 38.70163 | 121.34914 | 11294 ft | 312 kts | 215° |
| 2026-05-05 06:27 | 38.68314 | 121.33343 | 11629 ft | 329 kts | 215° |
| 2026-05-05 06:27 | 38.64319 | 121.29958 | 12427 ft | 357 kts | 214° |
| 2026-05-05 06:27 | 38.62226 | 121.28186 | 13168 ft | 360 kts | 214° |
| 2026-05-05 06:28 | 38.60150 | 121.26430 | 13922 ft | 362 kts | 214° |
| 2026-05-05 06:28 | 38.58053 | 121.24661 | 14636 ft | 365 kts | 214° |
| 2026-05-05 06:28 | 38.55974 | 121.22797 | 15298 ft | 369 kts | 219° |
| 2026-05-05 06:28 | 38.54056 | 121.20599 | 15960 ft | 373 kts | 226° |
| 2026-05-05 06:29 | 38.52346 | 121.18089 | 16639 ft | 376 kts | 232° |
| 2026-05-05 06:29 | 38.51566 | 121.16789 | 16970 ft | 378 kts | 233° |
| 2026-05-05 06:29 | 38.49975 | 121.14082 | 17629 ft | 382 kts | 233° |
| 2026-05-05 06:29 | 38.48387 | 121.11359 | 18279 ft | 385 kts | 234° |
| 2026-05-05 06:30 | 38.46793 | 121.08627 | 18893 ft | 389 kts | 234° |
| 2026-05-05 06:30 | 38.45173 | 121.05859 | 19445 ft | 395 kts | 234° |
| 2026-05-05 06:30 | 38.43513 | 121.03032 | 20016 ft | 399 kts | 234° |
| 2026-05-05 06:30 | 38.41848 | 121.00200 | 20562 ft | 404 kts | 234° |
| 2026-05-05 06:31 | 38.40146 | 120.97308 | 21082 ft | 409 kts | 234° |
| 2026-05-05 06:31 | 38.38447 | 120.94425 | 21587 ft | 413 kts | 234° |
| 2026-05-05 06:31 | 38.36705 | 120.91470 | 22083 ft | 418 kts | 234° |
| 2026-05-05 06:31 | 38.34972 | 120.88534 | 22606 ft | 421 kts | 234° |
| 2026-05-05 06:32 | 38.33211 | 120.85556 | 23184 ft | 422 kts | 235° |
| 2026-05-05 06:32 | 38.31448 | 120.82577 | 23684 ft | 425 kts | 235° |
| 2026-05-05 06:32 | 38.29639 | 120.79524 | 24167 ft | 429 kts | 235° |
| 2026-05-05 06:32 | 38.27864 | 120.76529 | 24631 ft | 432 kts | 235° |
| 2026-05-05 06:33 | 38.25881 | 120.73608 | 25093 ft | 437 kts | 226° |
| 2026-05-05 06:33 | 38.23547 | 120.71114 | 25549 ft | 443 kts | 217° |
| 2026-05-05 06:33 | 38.20896 | 120.69083 | 25990 ft | 448 kts | 209° |
| 2026-05-05 06:33 | 38.18113 | 120.67334 | 26415 ft | 451 kts | 208° |
| 2026-05-05 06:34 | 38.15264 | 120.65599 | 26828 ft | 454 kts | 207° |
| 2026-05-05 06:34 | 38.12425 | 120.63867 | 27228 ft | 457 kts | 208° |
| 2026-05-05 06:34 | 38.09537 | 120.62090 | 27615 ft | 460 kts | 208° |
| 2026-05-05 06:34 | 38.06662 | 120.60312 | 27999 ft | 463 kts | 207° |
| 2026-05-05 06:35 | 38.03682 | 120.58742 | 28375 ft | 468 kts | 201° |
| 2026-05-05 06:35 | 38.00544 | 120.57589 | 28758 ft | 471 kts | 194° |
| 2026-05-05 06:35 | 37.97323 | 120.56885 | 29116 ft | 475 kts | 188° |
| 2026-05-05 06:35 | 37.94005 | 120.56555 | 29446 ft | 479 kts | 185° |
| 2026-05-05 06:36 | 37.90663 | 120.56313 | 29751 ft | 483 kts | 184° |
| 2026-05-05 06:36 | 37.87298 | 120.56084 | 30063 ft | 486 kts | 184° |
| 2026-05-05 06:36 | 37.83904 | 120.55851 | 30436 ft | 487 kts | 184° |
| 2026-05-05 06:36 | 37.80564 | 120.55612 | 30924 ft | 486 kts | 185° |
| 2026-05-05 06:37 | 37.77173 | 120.55363 | 31426 ft | 484 kts | 185° |
| 2026-05-05 06:37 | 37.73856 | 120.55116 | 31892 ft | 483 kts | 185° |
| 2026-05-05 06:37 | 37.70488 | 120.54864 | 32338 ft | 482 kts | 185° |
| 2026-05-05 06:37 | 37.67155 | 120.54613 | 32753 ft | 482 kts | 185° |
| 2026-05-05 06:38 | 37.63817 | 120.54239 | 33159 ft | 481 kts | 188° |
| 2026-05-05 06:38 | 37.60506 | 120.53743 | 33577 ft | 480 kts | 188° |
| 2026-05-05 06:38 | 37.57172 | 120.53241 | 33981 ft | 479 kts | 188° |
| 2026-05-05 06:38 | 37.53864 | 120.52743 | 34350 ft | 479 kts | 188° |
| 2026-05-05 06:39 | 37.50559 | 120.52247 | 34646 ft | 479 kts | 188° |
| 2026-05-05 06:39 | 37.47274 | 120.51756 | 34934 ft | 478 kts | 188° |
| 2026-05-05 06:39 | 37.43942 | 120.51260 | 35209 ft | 478 kts | 189° |
| 2026-05-05 06:39 | 37.40648 | 120.50768 | 35486 ft | 478 kts | 189° |
| 2026-05-05 06:40 | 37.37353 | 120.50279 | 35768 ft | 477 kts | 189° |
| 2026-05-05 06:40 | 37.34071 | 120.49789 | 35958 ft | 477 kts | 189° |
| 2026-05-05 06:40 | 37.30780 | 120.49299 | 35966 ft | 476 kts | 189° |
| 2026-05-05 06:41 | 37.24213 | 120.48322 | 35955 ft | 476 kts | 189° |
| 2026-05-05 06:41 | 37.17668 | 120.47349 | 35957 ft | 476 kts | 189° |
| 2026-05-05 06:42 | 37.11060 | 120.46371 | 35961 ft | 477 kts | 189° |
| 2026-05-05 06:42 | 37.04476 | 120.45398 | 35968 ft | 477 kts | 189° |
| 2026-05-05 06:43 | 36.97869 | 120.44424 | 35968 ft | 477 kts | 189° |
| 2026-05-05 06:43 | 36.91311 | 120.43460 | 35963 ft | 476 kts | 189° |
| 2026-05-05 06:44 | 36.84734 | 120.42494 | 35962 ft | 476 kts | 189° |
| 2026-05-05 06:44 | 36.78162 | 120.41528 | 35974 ft | 476 kts | 189° |
| 2026-05-05 06:45 | 36.71552 | 120.40561 | 35964 ft | 477 kts | 189° |
| 2026-05-05 06:45 | 36.65002 | 120.39605 | 35967 ft | 477 kts | 189° |
| 2026-05-05 06:46 | 36.58391 | 120.38641 | 35976 ft | 477 kts | 189° |
| 2026-05-05 06:46 | 36.51797 | 120.37836 | 35964 ft | 478 kts | 185° |
| 2026-05-05 06:47 | 36.45119 | 120.37574 | 35962 ft | 477 kts | 184° |
| 2026-05-05 06:47 | 36.38516 | 120.37347 | 35973 ft | 478 kts | 183° |
| 2026-05-05 06:48 | 36.31835 | 120.37884 | 35980 ft | 487 kts | 173° |
| 2026-05-05 06:48 | 36.25229 | 120.39866 | 35973 ft | 491 kts | 162° |
| 2026-05-05 06:49 | 36.18938 | 120.43132 | 35990 ft | 492 kts | 157° |
| 2026-05-05 06:49 | 36.12572 | 120.46197 | 35981 ft | 491 kts | 164° |
| 2026-05-05 06:50 | 36.05921 | 120.48133 | 35980 ft | 490 kts | 172° |
| 2026-05-05 06:50 | 35.99235 | 120.49505 | 35982 ft | 490 kts | 171° |
| 2026-05-05 06:51 | 35.92588 | 120.51563 | 35983 ft | 491 kts | 164° |
| 2026-05-05 06:51 | 35.86236 | 120.54565 | 35986 ft | 493 kts | 158° |
| 2026-05-05 06:52 | 35.79937 | 120.57936 | 35993 ft | 492 kts | 158° |
| 2026-05-05 06:52 | 35.73657 | 120.61294 | 35979 ft | 492 kts | 156° |
| 2026-05-05 06:53 | 35.67621 | 120.65247 | 35990 ft | 492 kts | 152° |
| 2026-05-05 06:53 | 35.61660 | 120.69314 | 35980 ft | 492 kts | 152° |
| 2026-05-05 06:54 | 35.55677 | 120.73368 | 36006 ft | 493 kts | 152° |
| 2026-05-05 06:54 | 35.49663 | 120.77377 | 35986 ft | 492 kts | 155° |
| 2026-05-05 06:55 | 35.43419 | 120.80770 | 36016 ft | 490 kts | 160° |
| 2026-05-05 06:55 | 35.37088 | 120.83896 | 35999 ft | 490 kts | 160° |
| 2026-05-05 06:56 | 35.30805 | 120.86999 | 36010 ft | 489 kts | 160° |
| 2026-05-05 06:56 | 35.24471 | 120.90129 | 36007 ft | 489 kts | 160° |
| 2026-05-05 06:57 | 35.18162 | 120.93246 | 36014 ft | 489 kts | 160° |
| 2026-05-05 06:57 | 35.11888 | 120.96343 | 36029 ft | 489 kts | 160° |
| 2026-05-05 06:58 | 35.05602 | 120.99461 | 36017 ft | 488 kts | 160° |
| 2026-05-05 06:58 | 34.99280 | 121.02598 | 36018 ft | 489 kts | 160° |
| 2026-05-05 06:59 | 34.93016 | 121.05700 | 36025 ft | 488 kts | 160° |
| 2026-05-05 06:59 | 34.86707 | 121.08820 | 36020 ft | 488 kts | 160° |
| 2026-05-05 07:00 | 34.80447 | 121.11911 | 36023 ft | 488 kts | 160° |
| 2026-05-05 07:00 | 34.74144 | 121.15017 | 36028 ft | 488 kts | 161° |
| 2026-05-05 07:01 | 34.67856 | 121.18111 | 36032 ft | 488 kts | 160° |
| 2026-05-05 07:01 | 34.61579 | 121.21194 | 36031 ft | 487 kts | 160° |
| 2026-05-05 07:02 | 34.55295 | 121.24278 | 36034 ft | 487 kts | 161° |
| 2026-05-05 07:02 | 34.49008 | 121.27357 | 36038 ft | 487 kts | 161° |
| 2026-05-05 07:03 | 34.42748 | 121.30417 | 36051 ft | 486 kts | 161° |
| 2026-05-05 07:03 | 34.36470 | 121.33482 | 36046 ft | 487 kts | 161° |
| 2026-05-05 07:04 | 34.30191 | 121.36541 | 36057 ft | 486 kts | 161° |
| 2026-05-05 07:04 | 34.23927 | 121.39589 | 36052 ft | 486 kts | 161° |
| 2026-05-05 07:05 | 34.17657 | 121.42635 | 36050 ft | 485 kts | 161° |
| 2026-05-05 07:05 | 34.11409 | 121.45664 | 36057 ft | 485 kts | 161° |
| 2026-05-05 07:06 | 34.05182 | 121.48679 | 36055 ft | 484 kts | 161° |
| 2026-05-05 07:06 | 33.98904 | 121.51713 | 36056 ft | 484 kts | 161° |
| 2026-05-05 07:07 | 33.92681 | 121.54720 | 36063 ft | 484 kts | 162° |
| 2026-05-05 07:07 | 33.86405 | 121.57745 | 36055 ft | 484 kts | 162° |
| 2026-05-05 07:08 | 33.80179 | 121.60746 | 36057 ft | 483 kts | 162° |
| 2026-05-05 07:08 | 33.73924 | 121.63751 | 36070 ft | 483 kts | 162° |
| 2026-05-05 07:09 | 33.67712 | 121.66760 | 36061 ft | 482 kts | 162° |
| 2026-05-05 07:09 | 33.61480 | 121.69820 | 36068 ft | 483 kts | 162° |
| 2026-05-05 07:10 | 33.55276 | 121.72854 | 36063 ft | 482 kts | 162° |
| 2026-05-05 07:10 | 33.49064 | 121.75882 | 36068 ft | 482 kts | 162° |
| 2026-05-05 07:11 | 33.42876 | 121.78896 | 36067 ft | 481 kts | 162° |
| 2026-05-05 07:11 | 33.36668 | 121.81921 | 36071 ft | 480 kts | 163° |
| 2026-05-05 07:12 | 33.30495 | 121.84921 | 36074 ft | 481 kts | 163° |
| 2026-05-05 07:12 | 33.24309 | 121.87927 | 36074 ft | 480 kts | 163° |
| 2026-05-05 07:13 | 33.18095 | 121.90940 | 36076 ft | 480 kts | 163° |
| 2026-05-05 07:13 | 33.11914 | 121.93933 | 36084 ft | 479 kts | 163° |
| 2026-05-05 07:14 | 33.05756 | 121.96909 | 36078 ft | 479 kts | 163° |
| 2026-05-05 07:14 | 32.99601 | 121.99880 | 36088 ft | 479 kts | 163° |
| 2026-05-05 07:15 | 32.93419 | 122.02861 | 36099 ft | 478 kts | 163° |
| 2026-05-05 07:15 | 32.87252 | 122.05830 | 36097 ft | 477 kts | 163° |
| 2026-05-05 07:16 | 32.81101 | 122.08787 | 36124 ft | 476 kts | 163° |
| 2026-05-05 07:16 | 32.74969 | 122.11729 | 36066 ft | 476 kts | 164° |
| 2026-05-05 07:17 | 32.68856 | 122.14661 | 36010 ft | 475 kts | 164° |
| 2026-05-05 07:17 | 32.62691 | 122.17609 | 36053 ft | 476 kts | 164° |
| 2026-05-05 07:17 | 32.59642 | 122.19066 | 36198 ft | 475 kts | 164° |
| 2026-05-05 07:18 | 32.56570 | 122.20533 | 36136 ft | 474 kts | 164° |
| 2026-05-05 07:18 | 32.50470 | 122.23444 | 36100 ft | 474 kts | 164° |
| 2026-05-05 07:19 | 32.44337 | 122.26364 | 36088 ft | 473 kts | 164° |
| 2026-05-05 07:19 | 32.38254 | 122.29259 | 36096 ft | 472 kts | 164° |
| 2026-05-05 07:20 | 32.32143 | 122.32162 | 36099 ft | 473 kts | 164° |
| 2026-05-05 07:20 | 32.26054 | 122.35048 | 36099 ft | 473 kts | 165° |
| 2026-05-05 07:21 | 32.19941 | 122.37947 | 36094 ft | 471 kts | 165° |
| 2026-05-05 07:21 | 32.13892 | 122.40807 | 36095 ft | 472 kts | 165° |
| 2026-05-05 07:22 | 32.07771 | 122.43697 | 36093 ft | 471 kts | 165° |
| 2026-05-05 07:22 | 32.01702 | 122.46562 | 36096 ft | 470 kts | 165° |
| 2026-05-05 07:23 | 31.95663 | 122.49406 | 36099 ft | 470 kts | 165° |
| 2026-05-05 07:23 | 31.89693 | 122.52217 | 36102 ft | 470 kts | 165° |
| 2026-05-05 07:24 | 31.83636 | 122.55065 | 36108 ft | 470 kts | 166° |
| 2026-05-05 07:24 | 31.77564 | 122.57913 | 36109 ft | 469 kts | 166° |
| 2026-05-05 07:25 | 31.71402 | 122.59712 | 36111 ft | 449 kts | 182° |
| 2026-05-05 07:25 | 31.65301 | 122.59375 | 36111 ft | 432 kts | 198° |
| 2026-05-05 07:26 | 31.59716 | 122.57197 | 36111 ft | 419 kts | 212° |
| 2026-05-05 07:26 | 31.54863 | 122.53543 | 36114 ft | 413 kts | 220° |
| 2026-05-05 07:27 | 31.50225 | 122.49583 | 36112 ft | 414 kts | 219° |
| 2026-05-05 07:27 | 31.45329 | 122.46000 | 36115 ft | 417 kts | 214° |
| 2026-05-05 07:28 | 31.40114 | 122.42951 | 36114 ft | 421 kts | 209° |
| 2026-05-05 07:28 | 31.34669 | 122.40420 | 36114 ft | 422 kts | 207° |
| 2026-05-05 07:29 | 31.29167 | 122.37953 | 36076 ft | 418 kts | 207° |
| 2026-05-05 07:29 | 31.26478 | 122.36750 | 35746 ft | 416 kts | 207° |
| 2026-05-05 07:29 | 31.23763 | 122.35536 | 35127 ft | 418 kts | 207° |
| 2026-05-05 07:29 | 31.21077 | 122.34336 | 34454 ft | 420 kts | 207° |
| 2026-05-05 07:30 | 31.18327 | 122.33110 | 33800 ft | 422 kts | 206° |
| 2026-05-05 07:30 | 31.12855 | 122.30682 | 32572 ft | 424 kts | 206° |
| 2026-05-05 07:30 | 31.10087 | 122.29453 | 31902 ft | 426 kts | 206° |
| 2026-05-05 07:31 | 31.07306 | 122.28222 | 31184 ft | 429 kts | 206° |
| 2026-05-05 07:31 | 31.04512 | 122.26984 | 30470 ft | 432 kts | 206° |
| 2026-05-05 07:31 | 31.01691 | 122.25739 | 29745 ft | 435 kts | 205° |
| 2026-05-05 07:31 | 30.98834 | 122.24619 | 28918 ft | 441 kts | 202° |
| 2026-05-05 07:32 | 30.95846 | 122.23603 | 28020 ft | 446 kts | 200° |
| 2026-05-05 07:32 | 30.92852 | 122.22598 | 27091 ft | 452 kts | 200° |
| 2026-05-05 07:32 | 30.89839 | 122.21590 | 26177 ft | 456 kts | 200° |
| 2026-05-05 07:32 | 30.86792 | 122.20577 | 25587 ft | 452 kts | 199° |
| 2026-05-05 07:33 | 30.83833 | 122.19520 | 25027 ft | 445 kts | 205° |
| 2026-05-05 07:33 | 30.81125 | 122.17839 | 24447 ft | 435 kts | 217° |
| 2026-05-05 07:33 | 30.78832 | 122.15597 | 23950 ft | 427 kts | 227° |
| 2026-05-05 07:33 | 30.76987 | 122.12945 | 23290 ft | 425 kts | 237° |
| 2026-05-05 07:34 | 30.75365 | 122.10073 | 22548 ft | 425 kts | 238° |
| 2026-05-05 07:34 | 30.73763 | 122.07208 | 21934 ft | 423 kts | 238° |
| 2026-05-05 07:34 | 30.72176 | 122.04368 | 21318 ft | 420 kts | 238° |
| 2026-05-05 07:34 | 30.70603 | 122.01558 | 20778 ft | 416 kts | 238° |
| 2026-05-05 07:35 | 30.69024 | 121.98743 | 20504 ft | 406 kts | 238° |
| 2026-05-05 07:35 | 30.67509 | 121.96043 | 20137 ft | 399 kts | 238° |
| 2026-05-05 07:35 | 30.65991 | 121.93342 | 19769 ft | 399 kts | 238° |
| 2026-05-05 07:35 | 30.64475 | 121.90646 | 19708 ft | 402 kts | 238° |
| 2026-05-05 07:36 | 30.62948 | 121.87931 | 19672 ft | 402 kts | 238° |
| 2026-05-05 07:36 | 30.61419 | 121.85218 | 19295 ft | 400 kts | 238° |
| 2026-05-05 07:36 | 30.59903 | 121.82530 | 18521 ft | 404 kts | 238° |
| 2026-05-05 07:36 | 30.58363 | 121.79800 | 17691 ft | 409 kts | 238° |
| 2026-05-05 07:37 | 30.56805 | 121.77042 | 17102 ft | 407 kts | 238° |
| 2026-05-05 07:37 | 30.55259 | 121.74309 | 16650 ft | 401 kts | 239° |
| 2026-05-05 07:37 | 30.53738 | 121.71619 | 16103 ft | 399 kts | 239° |
| 2026-05-05 07:37 | 30.52221 | 121.68937 | 15403 ft | 401 kts | 239° |
| 2026-05-05 07:38 | 30.50712 | 121.66274 | 14963 ft | 396 kts | 238° |
| 2026-05-05 07:38 | 30.49217 | 121.63638 | 14708 ft | 392 kts | 239° |
| 2026-05-05 07:38 | 30.47708 | 121.60976 | 14683 ft | 394 kts | 239° |
| 2026-05-05 07:38 | 30.46192 | 121.58302 | 14677 ft | 395 kts | 239° |
| 2026-05-05 07:39 | 30.44686 | 121.55649 | 14678 ft | 395 kts | 239° |
| 2026-05-05 07:39 | 30.43180 | 121.52998 | 14686 ft | 395 kts | 239° |
| 2026-05-05 07:39 | 30.41665 | 121.50333 | 14692 ft | 395 kts | 239° |
| 2026-05-05 07:39 | 30.40153 | 121.47675 | 14654 ft | 394 kts | 239° |
| 2026-05-05 07:40 | 30.38659 | 121.45055 | 14281 ft | 391 kts | 239° |
| 2026-05-05 07:40 | 30.37170 | 121.42439 | 13575 ft | 394 kts | 238° |
| 2026-05-05 07:40 | 30.35663 | 121.39796 | 13059 ft | 391 kts | 238° |
| 2026-05-05 07:40 | 30.34170 | 121.37167 | 12743 ft | 383 kts | 239° |
| 2026-05-05 07:41 | 30.32734 | 121.34624 | 12215 ft | 383 kts | 238° |
| 2026-05-05 07:41 | 30.31267 | 121.32024 | 11526 ft | 385 kts | 238° |
| 2026-05-05 07:41 | 30.29802 | 121.29427 | 10941 ft | 385 kts | 238° |
| 2026-05-05 07:41 | 30.28346 | 121.26858 | 10582 ft | 378 kts | 238° |
| 2026-05-05 07:42 | 30.26914 | 121.24332 | 10152 ft | 375 kts | 237° |
| 2026-05-05 07:42 | 30.25461 | 121.21829 | 9890 ft | 377 kts | 235° |
| 2026-05-05 07:42 | 30.23907 | 121.19385 | 9877 ft | 377 kts | 234° |
| 2026-05-05 07:42 | 30.22349 | 121.16958 | 9859 ft | 373 kts | 234° |
| 2026-05-05 07:43 | 30.20810 | 121.14562 | 9849 ft | 372 kts | 234° |
| 2026-05-05 07:43 | 30.19273 | 121.12174 | 9872 ft | 371 kts | 234° |
| 2026-05-05 07:43 | 30.17730 | 121.09772 | 9853 ft | 372 kts | 234° |
| 2026-05-05 07:43 | 30.16179 | 121.07362 | 9867 ft | 372 kts | 234° |
| 2026-05-05 07:44 | 30.14652 | 121.04993 | 9847 ft | 372 kts | 234° |
| 2026-05-05 07:44 | 30.13099 | 121.02580 | 9856 ft | 372 kts | 234° |
| 2026-05-05 07:44 | 30.11549 | 121.00174 | 9879 ft | 372 kts | 234° |
| 2026-05-05 07:44 | 30.10002 | 120.97772 | 9856 ft | 372 kts | 234° |
| 2026-05-05 07:45 | 30.08474 | 120.95401 | 9857 ft | 372 kts | 234° |
| 2026-05-05 07:45 | 30.06933 | 120.93000 | 9861 ft | 372 kts | 234° |
| 2026-05-05 07:45 | 30.05384 | 120.90585 | 9860 ft | 372 kts | 234° |
| 2026-05-05 07:45 | 30.03862 | 120.88191 | 9858 ft | 372 kts | 237° |
| 2026-05-05 07:46 | 30.02785 | 120.85503 | 9831 ft | 369 kts | 259° |
| 2026-05-05 07:46 | 30.02811 | 120.82568 | 9851 ft | 366 kts | 284° |
| 2026-05-05 07:46 | 30.03783 | 120.79849 | 9869 ft | 366 kts | 297° |
| 2026-05-05 07:46 | 30.04944 | 120.77259 | 9856 ft | 367 kts | 297° |
| 2026-05-05 07:47 | 30.06080 | 120.74596 | 9858 ft | 367 kts | 295° |
| 2026-05-05 07:47 | 30.07137 | 120.71939 | 9857 ft | 366 kts | 294° |
| 2026-05-05 07:47 | 30.08154 | 120.69246 | 9807 ft | 362 kts | 293° |
| 2026-05-05 07:47 | 30.09113 | 120.66622 | 9641 ft | 353 kts | 293° |
| 2026-05-05 07:48 | 30.10043 | 120.64030 | 9479 ft | 343 kts | 292° |
| 2026-05-05 07:48 | 30.10935 | 120.61517 | 9275 ft | 333 kts | 292° |
| 2026-05-05 07:48 | 30.11798 | 120.59074 | 9103 ft | 325 kts | 292° |
| 2026-05-05 07:48 | 30.12637 | 120.56693 | 8951 ft | 316 kts | 292° |
| 2026-05-05 07:49 | 30.13460 | 120.54356 | 8779 ft | 308 kts | 292° |
| 2026-05-05 07:49 | 30.14255 | 120.52094 | 8614 ft | 300 kts | 292° |
| 2026-05-05 07:49 | 30.15021 | 120.49912 | 8506 ft | 293 kts | 292° |
| 2026-05-05 07:49 | 30.15768 | 120.47749 | 8349 ft | 286 kts | 288° |
| 2026-05-05 07:50 | 30.15947 | 120.45528 | 8188 ft | 278 kts | 257° |
| 2026-05-05 07:50 | 30.15214 | 120.43498 | 8093 ft | 270 kts | 242° |
| 2026-05-05 07:50 | 30.14294 | 120.41637 | 7984 ft | 264 kts | 240° |
| 2026-05-05 07:50 | 30.13388 | 120.39819 | 7890 ft | 258 kts | 241° |
| 2026-05-05 07:51 | 30.12522 | 120.38013 | 7687 ft | 255 kts | 241° |
| 2026-05-05 07:51 | 30.11686 | 120.36213 | 7405 ft | 255 kts | 242° |
| 2026-05-05 07:51 | 30.10871 | 120.34426 | 7183 ft | 251 kts | 241° |
| 2026-05-05 07:51 | 30.10072 | 120.32649 | 7030 ft | 244 kts | 242° |
| 2026-05-05 07:52 | 30.09306 | 120.30936 | 6914 ft | 237 kts | 241° |
| 2026-05-05 07:52 | 30.08563 | 120.29274 | 6766 ft | 231 kts | 241° |
| 2026-05-05 07:52 | 30.07836 | 120.27645 | 6626 ft | 224 kts | 241° |
| 2026-05-05 07:52 | 30.07134 | 120.26073 | 6525 ft | 218 kts | 241° |
| 2026-05-05 07:53 | 30.06447 | 120.24534 | 6423 ft | 212 kts | 241° |
| 2026-05-05 07:53 | 30.05866 | 120.23002 | 6300 ft | 207 kts | 259° |
| 2026-05-05 07:53 | 30.06131 | 120.21440 | 6173 ft | 201 kts | 302° |
| 2026-05-05 07:53 | 30.07167 | 120.20379 | 5920 ft | 201 kts | 336° |
| 2026-05-05 07:54 | 30.08528 | 120.20090 | 5634 ft | 199 kts | 2° |
| 2026-05-05 07:54 | 30.09914 | 120.20222 | 5313 ft | 201 kts | 7° |
| 2026-05-05 07:54 | 30.11306 | 120.20388 | 5035 ft | 202 kts | 7° |
| 2026-05-05 07:54 | 30.12710 | 120.20538 | 4770 ft | 201 kts | 6° |
| 2026-05-05 07:55 | 30.14089 | 120.20676 | 4496 ft | 200 kts | 11° |
| 2026-05-05 07:55 | 30.15280 | 120.21423 | 4196 ft | 194 kts | 55° |
| 2026-05-05 07:55 | 30.15922 | 120.22754 | 3894 ft | 190 kts | 66° |
| 2026-05-05 07:55 | 30.16498 | 120.24127 | 3475 ft | 191 kts | 67° |
| 2026-05-05 07:56 | 30.17078 | 120.25506 | 3090 ft | 191 kts | 66° |
| 2026-05-05 07:56 | 30.17659 | 120.26859 | 2953 ft | 189 kts | 66° |
| 2026-05-05 07:56 | 30.18254 | 120.28227 | 2951 ft | 191 kts | 66° |
| 2026-05-05 07:56 | 30.18858 | 120.29598 | 2948 ft | 191 kts | 66° |
| 2026-05-05 07:57 | 30.19446 | 120.30928 | 2869 ft | 181 kts | 66° |
| 2026-05-05 07:57 | 30.20035 | 120.32299 | 2151 ft | 203 kts | 65° |
| 2026-05-05 07:57 | 30.20711 | 120.33763 | 1462 ft | 218 kts | 63° |
| 2026-05-05 07:57 | 30.21438 | 120.35327 | 917 ft | 218 kts | 65° |
| 2026-05-05 07:58 | 30.22080 | 120.36863 | 604 ft | 209 kts | 66° |
| 2026-05-05 07:58 | 30.22703 | 120.38327 | 424 ft | 196 kts | 64° |
| 2026-05-05 07:58 | 30.23320 | 120.39681 | 240 ft | 184 kts | 63° |
| 2026-05-05 07:58 | 30.23877 | 120.40953 | 86 ft | 173 kts | 64° |
| 2026-05-05 07:59 | 30.24406 | 120.42145 | 38 ft | 158 kts | 65° |
| 2026-05-05 07:59 | 30.24741 | 120.42966 | 37 ft | 51 kts | 84° |
| 2026-05-05 07:59 | 30.24704 | 120.43149 | 37 ft | 9 kts | 136° |
| 2026-05-05 07:59 | 30.24661 | 120.43137 | 37 ft | 7 kts | 229° |
| 2026-05-05 08:00 | 30.24622 | 120.43085 | 37 ft | 8 kts | 237° |
| 2026-05-05 08:00 | 30.24603 | 120.43021 | 37 ft | 9 kts | 242° |
| 2026-05-05 08:00 | 30.24570 | 120.42951 | 37 ft | 10 kts | 241° |
| 2026-05-05 08:00 | 30.24532 | 120.42871 | 37 ft | 11 kts | 244° |
| 2026-05-05 08:01 | 30.24493 | 120.42784 | 37 ft | 11 kts | 234° |
| 2026-05-05 08:01 | 30.24421 | 120.42763 | 37 ft | 11 kts | 156° |
| 2026-05-05 08:01 | 30.24344 | 120.42811 | 37 ft | 13 kts | 150° |
| 2026-05-05 08:01 | 30.24280 | 120.42799 | 37 ft | 10 kts | 210° |
| 2026-05-05 08:02 | 30.24219 | 120.42772 | 37 ft | 3 kts | 195° |
| 2026-05-05 08:02 | 30.24212 | 120.42770 | 37 ft | 1 kts | 194° |
| 2026-05-05 08:02 | 30.24194 | 120.42765 | 37 ft | 3 kts | 192° |
| 2026-05-05 08:02 | 30.24183 | 120.42762 | 37 ft | 0 kts | 192° |